Time;durP1;ratioP1;P1;durP2;ratioP2;P2;SDS_P1;SDS_P2;PMS_P1;PMS_P2;Temp;Humidity;BMP_temperature;BMP_pressure;BME280_temperature;BME280_humidity;BME280_pressure;Samples;Min_cycle;Max_cycle;Signal;HPM_P1;HPM_P2
2021/06/18 00:01:22;;;;;;;;;;;19.70;74.60;;;;;;5055408;28;19917;-71
2021/06/18 00:03:48;;;;;;;;;;;19.60;76.20;;;;;;5053900;28;19969;-72
2021/06/18 00:06:14;;;;;;;;;;;19.50;75.80;;;;;;5053547;28;20019;-72
2021/06/18 00:08:41;;;;;;;;;;;19.40;76.50;;;;;;5055581;28;20003;-72
2021/06/18 00:11:06;;;;;;;;;;;19.30;77.20;;;;;;5054964;28;19939;-72
2021/06/18 00:13:32;;;;;;;;;;;19.20;77.20;;;;;;5035556;28;19917;-72
2021/06/18 00:15:57;;;;;;;;;;;19.10;77.80;;;;;;5034647;28;19909;-72
2021/06/18 00:18:23;;;;;;;;;;;19.00;77.80;;;;;;5043118;28;19924;-71
2021/06/18 00:20:49;;;;;;;;;;;18.90;77.40;;;;;;5054789;28;19951;-72
2021/06/18 00:23:14;;;;;;;;;;;18.90;77.90;;;;;;5055362;28;20003;-71
2021/06/18 00:25:41;;;;;;;;;;;18.90;76.00;;;;;;5055370;28;19913;-72
2021/06/18 00:28:07;;;;;;;;;;;19.00;75.70;;;;;;5051260;28;19919;-71
2021/06/18 00:30:33;;;;;;;;;;;19.10;75.40;;;;;;5055540;28;19934;-71
2021/06/18 00:32:59;;;;;;;;;;;19.20;74.40;;;;;;5055176;28;19939;-72
2021/06/18 00:35:25;;;;;;;;;;;19.30;73.40;;;;;;5052626;28;19912;-72
2021/06/18 00:37:50;;;;;;;;;;;19.20;74.50;;;;;;5039807;28;19952;-72
2021/06/18 00:40:16;;;;;;;;;;;19.10;76.10;;;;;;5055707;28;20000;-72
2021/06/18 00:42:41;;;;;;;;;;;19.00;78.00;;;;;;5055206;28;19913;-72
2021/06/18 00:45:07;;;;;;;;;;;18.80;77.70;;;;;;5040126;28;20370;-73
2021/06/18 00:47:33;;;;;;;;;;;18.70;79.00;;;;;;5054387;28;19919;-73
2021/06/18 00:49:58;;;;;;;;;;;18.60;78.50;;;;;;5055690;28;19916;-72
2021/06/18 00:52:24;;;;;;;;;;;18.70;76.50;;;;;;5053723;28;19917;-73
2021/06/18 00:54:50;;;;;;;;;;;18.90;77.20;;;;;;5063670;28;20315;-72
2021/06/18 00:57:16;;;;;;;;;;;18.90;75.40;;;;;;5037656;28;19916;-72
2021/06/18 00:59:42;;;;;;;;;;;19.00;75.60;;;;;;5036130;28;20217;-73
2021/06/18 01:02:08;;;;;;;;;;;18.90;76.40;;;;;;5038445;28;19916;-72
2021/06/18 01:04:34;;;;;;;;;;;19.00;75.70;;;;;;5054667;28;19919;-72
2021/06/18 01:07:06;;;;;;;;;;;18.90;76.70;;;;;;5053845;28;19913;-72
2021/06/18 01:09:39;;;;;;;;;;;18.90;77.60;;;;;;5054717;28;19917;-73
2021/06/18 01:12:07;;;;;;;;;;;18.80;78.20;;;;;;5037452;28;19970;-73
2021/06/18 01:14:36;;;;;;;;;;;18.70;78.90;;;;;;5052612;28;19920;-72
2021/06/18 01:17:14;;;;;;;;;;;18.50;79.00;;;;;;5054841;28;19916;-73
2021/06/18 01:19:58;;;;;;;;;;;18.50;78.70;;;;;;5053775;28;19956;-73
2021/06/18 01:22:25;;;;;;;;;;;18.50;78.20;;;;;;5053672;28;20000;-72
2021/06/18 01:25:02;;;;;;;;;;;18.60;78.00;;;;;;5041505;28;19913;-72
2021/06/18 01:27:30;;;;;;;;;;;18.60;78.00;;;;;;5037585;28;19944;-72
2021/06/18 01:30:09;;;;;;;;;;;18.60;78.60;;;;;;5050158;28;19981;-72
2021/06/18 01:32:41;;;;;;;;;;;18.70;79.10;;;;;;5035159;28;19929;-72
2021/06/18 01:35:11;;;;;;;;;;;18.70;79.70;;;;;;5062675;28;19912;-73
2021/06/18 01:37:37;;;;;;;;;;;18.70;79.10;;;;;;5054726;28;19909;-73
2021/06/18 01:40:09;;;;;;;;;;;18.60;78.40;;;;;;5054902;28;19917;-73
2021/06/18 01:42:36;;;;;;;;;;;18.50;78.60;;;;;;5054557;28;20135;-72
2021/06/18 01:45:04;;;;;;;;;;;18.50;79.00;;;;;;5049815;28;19921;-73
2021/06/18 01:47:29;;;;;;;;;;;18.50;79.90;;;;;;5043821;28;19909;-73
2021/06/18 01:49:56;;;;;;;;;;;18.50;80.60;;;;;;5054679;28;19936;-73
2021/06/18 01:52:23;;;;;;;;;;;18.60;80.20;;;;;;5053416;28;19917;-73
2021/06/18 01:54:49;;;;;;;;;;;18.70;80.10;;;;;;5061311;28;19913;-73
2021/06/18 01:57:15;;;;;;;;;;;18.70;79.90;;;;;;5055811;28;19932;-72
2021/06/18 01:59:41;;;;;;;;;;;18.60;80.50;;;;;;5058004;28;19996;-74
2021/06/18 02:02:11;;;;;;;;;;;18.50;81.30;;;;;;5058714;28;19909;-73
2021/06/18 02:04:38;;;;;;;;;;;18.60;80.10;;;;;;5038934;28;19913;-73
2021/06/18 02:07:04;;;;;;;;;;;18.90;78.50;;;;;;5047133;28;19914;-73
2021/06/18 02:09:31;;;;;;;;;;;19.00;78.30;;;;;;5053313;28;19913;-73
2021/06/18 02:11:57;;;;;;;;;;;19.10;78.60;;;;;;5057890;28;19936;-73
2021/06/18 02:14:24;;;;;;;;;;;19.20;79.50;;;;;;5057583;28;19909;-73
2021/06/18 02:16:59;;;;;;;;;;;19.10;80.00;;;;;;5057551;28;20314;-73
2021/06/18 02:19:25;;;;;;;;;;;19.00;78.90;;;;;;5057920;28;20244;-73
2021/06/18 02:21:52;;;;;;;;;;;19.10;78.00;;;;;;5056629;28;20000;-73
2021/06/18 02:24:19;;;;;;;;;;;19.20;78.40;;;;;;5062745;28;19909;-73
2021/06/18 02:26:46;;;;;;;;;;;19.20;78.80;;;;;;5039812;28;19916;-73
2021/06/18 02:29:12;;;;;;;;;;;19.20;79.20;;;;;;5057334;28;20021;-73
2021/06/18 02:31:38;;;;;;;;;;;19.20;79.70;;;;;;5057367;28;19967;-73
2021/06/18 02:34:05;;;;;;;;;;;19.20;80.20;;;;;;5057646;28;19990;-74
2021/06/18 02:36:30;;;;;;;;;;;19.20;81.00;;;;;;5055305;28;19913;-72
2021/06/18 02:38:56;;;;;;;;;;;19.20;81.10;;;;;;5057459;28;19970;-74
2021/06/18 02:41:22;;;;;;;;;;;19.10;81.50;;;;;;5057534;28;19920;-73
2021/06/18 02:43:47;;;;;;;;;;;19.10;81.20;;;;;;5057194;28;19912;-73
2021/06/18 02:46:18;;;;;;;;;;;19.10;80.00;;;;;;5053970;28;19912;-73
2021/06/18 02:48:48;;;;;;;;;;;18.90;80.10;;;;;;5053413;28;19917;-72
2021/06/18 02:51:33;;;;;;;;;;;18.90;80.90;;;;;;5052766;28;19925;-72
2021/06/18 02:54:08;;;;;;;;;;;18.80;80.70;;;;;;5056599;28;20026;-72
2021/06/18 02:56:57;;;;;;;;;;;18.70;79.40;;;;;;5031310;28;19917;-73
2021/06/18 02:59:43;;;;;;;;;;;18.70;80.60;;;;;;5043826;28;20332;-73
2021/06/18 03:02:13;;;;;;;;;;;18.50;82.00;;;;;;5056357;28;19913;-73
2021/06/18 03:04:41;;;;;;;;;;;18.30;83.00;;;;;;5055228;28;20039;-72
2021/06/18 03:07:08;;;;;;;;;;;18.10;83.10;;;;;;5055912;28;19913;-73
2021/06/18 03:09:36;;;;;;;;;;;18.10;83.50;;;;;;5055281;28;19962;-73
2021/06/18 03:12:02;;;;;;;;;;;18.20;83.30;;;;;;5057165;28;19954;-73
2021/06/18 03:14:29;;;;;;;;;;;18.20;83.30;;;;;;5056074;28;20270;-73
2021/06/18 03:17:00;;;;;;;;;;;18.20;83.50;;;;;;5038706;28;19920;-73
2021/06/18 03:19:28;;;;;;;;;;;18.10;84.20;;;;;;5056656;28;20027;-73
2021/06/18 03:21:55;;;;;;;;;;;18.10;84.60;;;;;;5055488;28;19913;-73
2021/06/18 03:24:21;;;;;;;;;;;18.00;84.90;;;;;;5048568;28;19975;-73
2021/06/18 03:26:48;;;;;;;;;;;18.00;84.40;;;;;;5056627;28;19958;-73
2021/06/18 03:29:13;;;;;;;;;;;18.20;83.70;;;;;;5057023;28;19916;-73
2021/06/18 03:31:39;;;;;;;;;;;18.20;83.80;;;;;;5038303;28;19917;-73
2021/06/18 03:34:05;;;;;;;;;;;18.20;84.20;;;;;;5055313;28;20245;-73
2021/06/18 03:36:31;;;;;;;;;;;18.10;84.20;;;;;;5054925;28;19967;-73
2021/06/18 03:38:57;;;;;;;;;;;18.10;83.90;;;;;;5056509;28;20003;-73
2021/06/18 03:41:23;;;;;;;;;;;18.10;84.10;;;;;;5056479;28;19913;-73
2021/06/18 03:43:49;;;;;;;;;;;18.10;84.10;;;;;;5046270;28;19940;-73
2021/06/18 03:46:16;;;;;;;;;;;18.20;83.40;;;;;;5050742;28;19913;-73
2021/06/18 03:48:44;;;;;;;;;;;18.30;83.30;;;;;;5037195;28;20004;-73
2021/06/18 03:51:10;;;;;;;;;;;18.30;83.20;;;;;;5054140;28;19913;-73
2021/06/18 03:53:35;;;;;;;;;;;18.30;83.40;;;;;;5056463;28;19978;-73
2021/06/18 03:56:02;;;;;;;;;;;18.20;83.90;;;;;;5054760;28;19921;-73
2021/06/18 03:58:28;;;;;;;;;;;18.10;84.80;;;;;;5055907;28;19939;-73
2021/06/18 04:00:55;;;;;;;;;;;17.80;85.80;;;;;;5054834;28;20237;-73
2021/06/18 04:03:22;;;;;;;;;;;17.80;85.90;;;;;;5055691;28;19959;-72
2021/06/18 04:05:57;;;;;;;;;;;17.70;86.30;;;;;;5044835;28;19927;-72
2021/06/18 04:08:23;;;;;;;;;;;17.70;86.50;;;;;;5055814;28;19917;-72
2021/06/18 04:10:48;;;;;;;;;;;17.60;86.80;;;;;;5037524;28;19913;-72
2021/06/18 04:13:14;;;;;;;;;;;17.70;86.80;;;;;;5054582;28;19991;-73
2021/06/18 04:15:40;;;;;;;;;;;17.70;87.10;;;;;;5054844;28;19917;-73
2021/06/18 04:18:06;;;;;;;;;;;17.90;86.80;;;;;;5053362;28;20234;-73
2021/06/18 04:20:33;;;;;;;;;;;18.00;86.70;;;;;;5043812;28;19923;-73
2021/06/18 04:22:59;;;;;;;;;;;17.90;87.50;;;;;;5074881;28;19916;-73
2021/06/18 04:25:25;;;;;;;;;;;17.80;88.20;;;;;;5024927;28;19913;-73
2021/06/18 04:27:52;;;;;;;;;;;17.70;88.60;;;;;;5055164;28;20011;-73
2021/06/18 04:30:18;;;;;;;;;;;17.70;88.90;;;;;;5055307;28;20257;-73
2021/06/18 04:32:44;;;;;;;;;;;17.70;89.20;;;;;;5054242;28;19920;-73
2021/06/18 04:35:10;;;;;;;;;;;17.60;89.40;;;;;;5049631;28;19923;-73
2021/06/18 04:37:35;;;;;;;;;;;17.60;89.90;;;;;;5043371;28;19921;-72
2021/06/18 04:40:04;;;;;;;;;;;17.70;90.00;;;;;;5055179;28;20003;-73
2021/06/18 04:42:31;;;;;;;;;;;17.80;90.20;;;;;;5050028;28;19913;-73
2021/06/18 04:44:57;;;;;;;;;;;17.90;90.00;;;;;;5041789;28;19916;-73
2021/06/18 04:47:24;;;;;;;;;;;17.90;90.40;;;;;;5049707;28;19965;-73
2021/06/18 04:49:49;;;;;;;;;;;18.00;90.70;;;;;;5053083;28;19928;-73
2021/06/18 04:52:16;;;;;;;;;;;18.00;91.10;;;;;;5054265;28;19909;-72
2021/06/18 04:54:42;;;;;;;;;;;18.20;91.30;;;;;;5054812;28;19995;-73
2021/06/18 04:57:08;;;;;;;;;;;18.30;91.20;;;;;;5054025;28;20007;-73
2021/06/18 04:59:37;;;;;;;;;;;18.30;91.20;;;;;;5055139;28;20257;-73
2021/06/18 05:02:02;;;;;;;;;;;18.40;91.30;;;;;;5051746;28;20000;-73
2021/06/18 05:04:28;;;;;;;;;;;18.40;91.40;;;;;;5047361;28;20039;-73
2021/06/18 05:06:53;;;;;;;;;;;18.50;91.40;;;;;;5043940;28;19913;-73
2021/06/18 05:09:19;;;;;;;;;;;18.50;91.40;;;;;;5036655;28;19992;-73
2021/06/18 05:11:47;;;;;;;;;;;18.60;91.40;;;;;;5053312;28;19959;-73
2021/06/18 05:14:16;;;;;;;;;;;18.70;91.40;;;;;;5046113;28;19917;-73
2021/06/18 05:16:42;;;;;;;;;;;18.90;91.20;;;;;;5040419;28;19943;-73
2021/06/18 05:19:08;;;;;;;;;;;19.00;91.30;;;;;;5051418;28;19913;-73
2021/06/18 05:21:34;;;;;;;;;;;19.20;91.30;;;;;;5053205;28;20409;-73
2021/06/18 05:24:00;;;;;;;;;;;19.30;91.30;;;;;;5054487;28;19913;-73
2021/06/18 05:26:30;;;;;;;;;;;19.50;90.80;;;;;;5054148;28;21653;-73
2021/06/18 05:28:56;;;;;;;;;;;19.60;90.70;;;;;;5035134;28;20000;-72
2021/06/18 05:31:21;;;;;;;;;;;19.70;90.50;;;;;;5049531;28;20317;-73
2021/06/18 05:33:47;;;;;;;;;;;19.90;90.30;;;;;;5048754;28;19928;-72
2021/06/18 05:36:12;;;;;;;;;;;20.00;89.50;;;;;;5053379;28;19913;-73
2021/06/18 05:38:38;;;;;;;;;;;20.10;89.20;;;;;;5058985;28;19919;-73
2021/06/18 05:41:03;;;;;;;;;;;20.30;88.80;;;;;;5058365;28;20006;-72
2021/06/18 05:43:29;;;;;;;;;;;20.50;88.90;;;;;;5056002;28;19920;-73
2021/06/18 05:45:54;;;;;;;;;;;20.60;87.40;;;;;;5058675;28;19920;-73
2021/06/18 05:48:20;;;;;;;;;;;20.80;87.70;;;;;;5058529;28;19916;-73
2021/06/18 05:50:46;;;;;;;;;;;20.90;87.20;;;;;;5056093;28;19916;-73
2021/06/18 05:53:11;;;;;;;;;;;21.10;86.60;;;;;;5057944;28;19921;-74
2021/06/18 05:55:37;;;;;;;;;;;21.20;87.20;;;;;;5058679;28;20217;-74
2021/06/18 05:58:02;;;;;;;;;;;21.30;87.00;;;;;;5058141;28;19962;-73
2021/06/18 06:00:28;;;;;;;;;;;21.50;85.90;;;;;;5057900;28;19917;-73
2021/06/18 06:02:54;;;;;;;;;;;21.60;85.20;;;;;;5057278;28;19979;-73
2021/06/18 06:05:19;;;;;;;;;;;21.70;85.70;;;;;;5048468;28;19995;-72
2021/06/18 06:07:46;;;;;;;;;;;21.70;86.20;;;;;;5058558;28;19908;-73
2021/06/18 06:10:11;;;;;;;;;;;21.90;86.90;;;;;;5058331;28;19916;-72
2021/06/18 06:12:37;;;;;;;;;;;22.20;85.20;;;;;;5055259;28;19950;-72
2021/06/18 06:15:03;;;;;;;;;;;22.40;83.10;;;;;;5040357;28;19943;-72
2021/06/18 06:17:28;;;;;;;;;;;22.60;79.00;;;;;;5057246;28;19932;-73
2021/06/18 06:19:54;;;;;;;;;;;22.80;77.70;;;;;;5057376;28;20324;-73
2021/06/18 06:22:19;;;;;;;;;;;23.00;79.90;;;;;;5055940;28;19913;-73
2021/06/18 06:24:45;;;;;;;;;;;23.10;78.00;;;;;;5057685;28;19913;-73
2021/06/18 06:27:11;;;;;;;;;;;23.30;76.40;;;;;;5057480;28;20004;-73
2021/06/18 06:29:36;;;;;;;;;;;23.30;75.30;;;;;;5057949;28;19920;-73
2021/06/18 06:32:02;;;;;;;;;;;23.40;75.40;;;;;;5055768;28;19913;-72
2021/06/18 06:34:28;;;;;;;;;;;23.40;74.80;;;;;;5050279;28;19920;-73
2021/06/18 06:36:53;;;;;;;;;;;23.60;74.40;;;;;;5037383;28;19919;-73
2021/06/18 06:39:19;;;;;;;;;;;23.70;75.00;;;;;;5044038;28;19924;-72
2021/06/18 06:41:44;;;;;;;;;;;23.90;74.30;;;;;;5052974;28;19920;-73
2021/06/18 06:44:10;;;;;;;;;;;24.10;71.70;;;;;;5055294;28;19913;-73
2021/06/18 06:46:36;;;;;;;;;;;24.10;72.70;;;;;;5052039;28;19962;-72
2021/06/18 06:49:02;;;;;;;;;;;24.20;72.50;;;;;;5055538;28;19913;-74
2021/06/18 06:51:28;;;;;;;;;;;24.30;72.20;;;;;;5055159;28;19913;-73
2021/06/18 06:53:53;;;;;;;;;;;24.40;72.80;;;;;;5056488;28;19916;-73
2021/06/18 06:56:19;;;;;;;;;;;24.30;72.40;;;;;;5057773;28;19910;-73
2021/06/18 06:58:45;;;;;;;;;;;24.30;73.70;;;;;;5057250;28;19913;-73
2021/06/18 07:01:11;;;;;;;;;;;24.50;71.40;;;;;;5056873;28;20000;-72
2021/06/18 07:03:37;;;;;;;;;;;24.70;72.10;;;;;;5057388;28;19921;-73
2021/06/18 07:06:03;;;;;;;;;;;24.60;71.30;;;;;;5055588;28;20206;-73
2021/06/18 07:08:28;;;;;;;;;;;24.70;71.70;;;;;;5057308;28;19924;-73
2021/06/18 07:10:54;;;;;;;;;;;24.70;71.30;;;;;;5056769;28;19912;-72
2021/06/18 07:13:20;;;;;;;;;;;24.90;72.90;;;;;;5055967;28;19921;-73
2021/06/18 07:15:46;;;;;;;;;;;25.00;70.80;;;;;;5057065;28;19919;-73
2021/06/18 07:18:12;;;;;;;;;;;25.00;71.60;;;;;;5038444;28;19996;-69
2021/06/18 07:20:38;;;;;;;;;;;25.10;71.60;;;;;;5055559;28;19912;-72
2021/06/18 07:23:04;;;;;;;;;;;25.40;71.20;;;;;;5055672;28;19913;-72
2021/06/18 07:25:29;;;;;;;;;;;25.90;70.20;;;;;;5054606;28;19913;-72
2021/06/18 07:27:55;;;;;;;;;;;26.90;68.50;;;;;;5064928;28;20604;-72
2021/06/18 07:30:20;;;;;;;;;;;28.30;65.40;;;;;;5056116;28;19970;-72
2021/06/18 07:32:46;;;;;;;;;;;29.30;62.50;;;;;;5053887;28;19999;-73
2021/06/18 07:35:12;;;;;;;;;;;30.00;61.20;;;;;;5054282;28;19913;-73
2021/06/18 07:37:37;;;;;;;;;;;30.40;60.50;;;;;;5061843;28;20024;-73
2021/06/18 07:40:03;;;;;;;;;;;30.80;60.10;;;;;;5056418;28;19916;-73
2021/06/18 07:42:29;;;;;;;;;;;31.10;59.50;;;;;;5055149;28;19913;-73
2021/06/18 07:44:54;;;;;;;;;;;31.30;60.20;;;;;;5056635;28;19919;-73
2021/06/18 07:47:20;;;;;;;;;;;31.60;56.90;;;;;;5056162;28;19917;-73
2021/06/18 07:49:45;;;;;;;;;;;31.60;58.90;;;;;;5056324;28;19913;-73
2021/06/18 07:52:11;;;;;;;;;;;32.60;56.60;;;;;;5048557;28;19921;-73
2021/06/18 07:54:36;;;;;;;;;;;33.30;54.90;;;;;;5047023;28;19913;-73
2021/06/18 07:57:02;;;;;;;;;;;33.10;55.60;;;;;;5055332;28;19913;-73
2021/06/18 07:59:28;;;;;;;;;;;32.40;56.50;;;;;;5064725;28;19923;-73
2021/06/18 08:01:53;;;;;;;;;;;32.50;56.00;;;;;;5055414;28;20364;-70
2021/06/18 08:04:19;;;;;;;;;;;33.10;56.90;;;;;;5056347;28;19913;-73
2021/06/18 08:06:44;;;;;;;;;;;33.20;56.00;;;;;;5054348;28;19913;-73
2021/06/18 08:09:10;;;;;;;;;;;33.50;56.30;;;;;;5055151;28;19913;-73
2021/06/18 08:11:36;;;;;;;;;;;33.50;56.50;;;;;;5054590;28;19920;-73
2021/06/18 08:14:02;;;;;;;;;;;33.30;55.90;;;;;;5055391;28;19986;-73
2021/06/18 08:16:28;;;;;;;;;;;32.90;55.70;;;;;;5055070;28;19924;-73
2021/06/18 08:18:53;;;;;;;;;;;32.80;56.50;;;;;;5055399;28;19913;-73
2021/06/18 08:21:20;;;;;;;;;;;33.30;56.00;;;;;;5053960;28;19913;-73
2021/06/18 08:23:45;;;;;;;;;;;33.40;55.80;;;;;;5043289;28;20309;-73
2021/06/18 08:26:11;;;;;;;;;;;33.80;54.90;;;;;;5054636;28;19970;-74
2021/06/18 08:28:36;;;;;;;;;;;34.30;53.90;;;;;;5055474;28;19915;-73
2021/06/18 08:31:04;;;;;;;;;;;34.60;54.90;;;;;;5055688;28;19913;-73
2021/06/18 08:33:32;;;;;;;;;;;35.10;52.10;;;;;;5053606;28;19920;-73
2021/06/18 08:35:58;;;;;;;;;;;34.20;53.40;;;;;;5053851;28;19920;-72
2021/06/18 08:38:24;;;;;;;;;;;34.60;53.10;;;;;;5055317;28;19913;-72
2021/06/18 08:40:49;;;;;;;;;;;34.80;53.20;;;;;;5055210;28;19921;-72
2021/06/18 08:43:15;;;;;;;;;;;34.50;54.10;;;;;;5054208;28;19917;-72
2021/06/18 08:45:41;;;;;;;;;;;34.60;52.80;;;;;;5055160;28;19921;-73
2021/06/18 08:48:07;;;;;;;;;;;34.50;53.90;;;;;;5054546;28;19912;-73
2021/06/18 08:50:32;;;;;;;;;;;34.80;53.20;;;;;;5054942;28;19959;-73
2021/06/18 08:52:59;;;;;;;;;;;35.10;53.30;;;;;;5058590;28;19920;-73
2021/06/18 08:55:25;;;;;;;;;;;34.60;53.50;;;;;;5055212;28;19967;-72
2021/06/18 08:57:58;;;;;;;;;;;34.40;54.10;;;;;;5055035;28;20002;-72
2021/06/18 09:00:24;;;;;;;;;;;34.50;53.30;;;;;;5054755;28;20217;-72
2021/06/18 09:02:50;;;;;;;;;;;34.40;53.50;;;;;;5046381;28;19957;-72
2021/06/18 09:05:16;;;;;;;;;;;35.20;51.80;;;;;;5050578;28;19953;-72
2021/06/18 09:07:48;;;;;;;;;;;36.10;51.10;;;;;;5056452;28;19924;-72
2021/06/18 09:10:23;;;;;;;;;;;36.80;50.70;;;;;;5059558;28;19916;-72
2021/06/18 09:13:07;;;;;;;;;;;37.10;50.80;;;;;;5058114;28;19962;-72
2021/06/18 09:15:33;;;;;;;;;;;36.50;50.30;;;;;;5059207;28;19939;-72
2021/06/18 09:18:18;;;;;;;;;;;36.50;50.80;;;;;;5058756;28;19912;-72
2021/06/18 09:20:43;;;;;;;;;;;36.90;50.10;;;;;;5057509;28;19916;-71
2021/06/18 09:23:19;;;;;;;;;;;36.80;50.40;;;;;;5052033;28;19913;-72
2021/06/18 09:25:45;;;;;;;;;;;37.10;49.90;;;;;;5046677;28;19920;-72
2021/06/18 09:28:10;;;;;;;;;;;37.30;51.10;;;;;;5058005;28;19921;-72
2021/06/18 09:30:36;;;;;;;;;;;37.70;50.10;;;;;;5057988;28;19959;-72
2021/06/18 09:33:09;;;;;;;;;;;37.50;49.20;;;;;;5039080;28;19921;-72
2021/06/18 09:35:35;;;;;;;;;;;37.90;48.20;;;;;;5054595;28;19917;-72
2021/06/18 09:38:02;;;;;;;;;;;37.00;50.50;;;;;;5058556;28;19970;-71
2021/06/18 09:40:28;;;;;;;;;;;35.70;51.20;;;;;;5058769;28;20298;-72
2021/06/18 09:43:08;;;;;;;;;;;35.60;49.60;;;;;;5058614;28;19921;-72
2021/06/18 09:45:35;;;;;;;;;;;35.80;51.70;;;;;;5058413;28;20317;-73
2021/06/18 09:48:10;;;;;;;;;;;35.80;51.60;;;;;;5058385;28;20340;-71
2021/06/18 09:50:39;;;;;;;;;;;35.40;52.30;;;;;;5056636;28;19913;-72
2021/06/18 09:53:11;;;;;;;;;;;34.50;53.10;;;;;;5057684;28;19917;-72
2021/06/18 09:55:36;;;;;;;;;;;35.20;51.60;;;;;;5058019;28;20314;-72
2021/06/18 09:58:02;;;;;;;;;;;36.10;49.70;;;;;;5058480;28;19955;-71
2021/06/18 10:00:28;;;;;;;;;;;36.50;50.60;;;;;;5055457;28;20236;-71
2021/06/18 10:02:54;;;;;;;;;;;37.00;49.90;;;;;;5049456;28;19921;-71
2021/06/18 10:05:36;;;;;;;;;;;37.20;51.00;;;;;;5046784;28;19924;-72
2021/06/18 10:08:02;;;;;;;;;;;36.90;50.10;;;;;;5048887;28;19924;-71
2021/06/18 10:10:29;;;;;;;;;;;36.40;52.00;;;;;;5055643;28;19909;-71
2021/06/18 10:12:55;;;;;;;;;;;36.40;50.60;;;;;;5046485;28;20026;-71
2021/06/18 10:15:21;;;;;;;;;;;36.50;50.40;;;;;;5051831;28;19921;-71
2021/06/18 10:17:48;;;;;;;;;;;36.40;52.20;;;;;;5050025;28;19913;-71
2021/06/18 10:20:23;;;;;;;;;;;36.10;50.50;;;;;;5040681;28;19913;-71
2021/06/18 10:22:49;;;;;;;;;;;36.00;50.90;;;;;;5060416;28;19912;-71
2021/06/18 10:25:17;;;;;;;;;;;36.30;50.20;;;;;;5046092;28;20098;-73
2021/06/18 10:27:47;;;;;;;;;;;36.30;50.00;;;;;;5054325;28;20217;-72
2021/06/18 10:30:45;;;;;;;;;;;36.00;50.90;;;;;;5061465;28;20007;-72
2021/06/18 10:33:22;;;;;;;;;;;35.80;50.10;;;;;;5016098;28;19966;-71
2021/06/18 10:35:58;;;;;;;;;;;35.90;49.90;;;;;;5054195;28;19967;-71
2021/06/18 10:38:34;;;;;;;;;;;35.80;51.10;;;;;;5055743;28;19913;-70
2021/06/18 10:41:22;;;;;;;;;;;35.80;52.90;;;;;;5039158;28;20011;-71
2021/06/18 10:43:49;;;;;;;;;;;35.80;52.10;;;;;;5056565;28;19909;-71
2021/06/18 10:46:16;;;;;;;;;;;35.80;50.80;;;;;;5051332;28;20011;-71
2021/06/18 10:48:44;;;;;;;;;;;35.70;50.60;;;;;;5057512;28;19909;-71
2021/06/18 10:51:25;;;;;;;;;;;35.80;51.60;;;;;;5038877;28;19913;-71
2021/06/18 10:53:52;;;;;;;;;;;35.10;52.90;;;;;;5053681;28;21424;-70
2021/06/18 10:56:19;;;;;;;;;;;35.60;52.30;;;;;;5041068;28;19913;-71
2021/06/18 10:59:05;;;;;;;;;;;36.10;52.80;;;;;;5056302;28;19956;-72
2021/06/18 11:01:31;;;;;;;;;;;36.20;53.20;;;;;;5056202;28;20206;-72
2021/06/18 11:04:00;;;;;;;;;;;36.20;52.30;;;;;;5053365;28;19917;-72
2021/06/18 11:06:45;;;;;;;;;;;36.50;52.00;;;;;;5054145;28;19920;-72
2021/06/18 11:09:12;;;;;;;;;;;36.90;48.50;;;;;;5052788;28;20313;-72
2021/06/18 11:11:38;;;;;;;;;;;36.60;50.20;;;;;;5055967;28;19917;-72
2021/06/18 11:14:05;;;;;;;;;;;37.00;50.80;;;;;;5035333;28;19920;-72
2021/06/18 11:16:31;;;;;;;;;;;37.50;49.50;;;;;;5049870;28;19919;-72
2021/06/18 11:19:16;;;;;;;;;;;37.20;50.60;;;;;;5053794;28;19909;-71
2021/06/18 11:21:42;;;;;;;;;;;37.20;48.90;;;;;;5052905;28;19912;-72
2021/06/18 11:24:08;;;;;;;;;;;36.70;48.70;;;;;;5052362;28;19909;-72
2021/06/18 11:26:34;;;;;;;;;;;36.70;49.60;;;;;;5055037;28;19913;-71
2021/06/18 11:29:00;;;;;;;;;;;36.20;49.40;;;;;;5046766;28;20533;-71
2021/06/18 11:31:41;;;;;;;;;;;35.80;52.90;;;;;;5047642;28;19917;-71
2021/06/18 11:34:22;;;;;;;;;;;35.80;53.00;;;;;;5053279;28;20020;-71
2021/06/18 11:36:49;;;;;;;;;;;36.60;52.90;;;;;;5049278;28;19965;-71
2021/06/18 11:39:17;;;;;;;;;;;37.00;49.30;;;;;;5053514;28;20003;-73
2021/06/18 11:41:44;;;;;;;;;;;37.10;46.60;;;;;;5056231;28;19939;-71
2021/06/18 11:44:11;;;;;;;;;;;36.60;49.10;;;;;;5056438;28;19917;-70
2021/06/18 11:46:37;;;;;;;;;;;36.30;48.60;;;;;;5051041;28;19935;-70
2021/06/18 11:49:18;;;;;;;;;;;36.50;47.90;;;;;;5043031;28;19932;-71
2021/06/18 11:51:44;;;;;;;;;;;35.70;48.60;;;;;;5035111;28;19914;-71
2021/06/18 11:54:19;;;;;;;;;;;35.80;48.00;;;;;;5054007;28;19935;-71
2021/06/18 11:56:46;;;;;;;;;;;36.00;47.80;;;;;;5051177;28;19931;-71
2021/06/18 11:59:13;;;;;;;;;;;36.40;47.10;;;;;;5042741;28;20329;-71
2021/06/18 12:01:42;;;;;;;;;;;36.40;46.10;;;;;;5053115;28;19919;-70
2021/06/18 12:04:13;;;;;;;;;;;36.10;48.70;;;;;;5045264;28;20298;-71
2021/06/18 12:06:39;;;;;;;;;;;36.30;49.10;;;;;;5053749;28;19975;-72
2021/06/18 12:09:09;;;;;;;;;;;36.80;48.80;;;;;;5038731;28;20194;-72
2021/06/18 12:11:34;;;;;;;;;;;36.90;48.00;;;;;;5053852;28;20313;-71
2021/06/18 12:14:00;;;;;;;;;;;37.30;45.90;;;;;;5046437;28;19971;-71
2021/06/18 12:16:30;;;;;;;;;;;37.60;47.20;;;;;;5060182;28;19916;-72
2021/06/18 12:18:57;;;;;;;;;;;37.30;45.50;;;;;;5039902;28;20370;-71
2021/06/18 12:21:26;;;;;;;;;;;37.30;45.60;;;;;;5043058;28;19959;-71
2021/06/18 12:24:04;;;;;;;;;;;37.50;42.80;;;;;;5050537;28;19932;-71
2021/06/18 12:26:30;;;;;;;;;;;37.20;43.60;;;;;;5040972;28;19913;-71
2021/06/18 12:28:56;;;;;;;;;;;36.90;47.50;;;;;;5050256;28;19921;-72
2021/06/18 12:31:22;;;;;;;;;;;37.20;43.00;;;;;;5065551;28;19920;-72
2021/06/18 12:33:47;;;;;;;;;;;37.20;44.50;;;;;;5055757;28;19921;-72
2021/06/18 12:36:17;;;;;;;;;;;37.60;44.10;;;;;;5055009;28;19940;-72
2021/06/18 12:38:44;;;;;;;;;;;37.60;41.10;;;;;;5037313;28;19919;-72
2021/06/18 12:41:22;;;;;;;;;;;37.60;45.10;;;;;;5054874;28;19912;-72
2021/06/18 12:43:57;;;;;;;;;;;37.50;44.10;;;;;;5055590;28;19995;-72
2021/06/18 12:46:22;;;;;;;;;;;37.80;45.10;;;;;;5055968;28;20008;-72
2021/06/18 12:48:49;;;;;;;;;;;37.70;44.00;;;;;;5054548;28;19995;-72
2021/06/18 12:51:18;;;;;;;;;;;37.80;42.70;;;;;;5037127;28;19917;-72
2021/06/18 12:53:43;;;;;;;;;;;37.70;42.70;;;;;;5055535;28;19959;-71
2021/06/18 12:56:10;;;;;;;;;;;37.90;43.20;;;;;;5059712;28;19995;-72
2021/06/18 12:58:36;;;;;;;;;;;38.20;42.90;;;;;;5068654;28;20323;-73
2021/06/18 13:01:07;;;;;;;;;;;38.70;42.20;;;;;;5054363;28;19999;-71
2021/06/18 13:03:34;;;;;;;;;;;39.10;40.80;;;;;;5040675;28;20260;-72
2021/06/18 13:06:00;;;;;;;;;;;39.00;39.60;;;;;;5058832;28;19958;-72
2021/06/18 13:08:26;;;;;;;;;;;38.50;41.40;;;;;;5064501;28;20298;-72
2021/06/18 13:10:53;;;;;;;;;;;38.10;42.20;;;;;;5071869;28;19966;-71
2021/06/18 13:13:19;;;;;;;;;;;37.60;45.40;;;;;;5065690;28;20023;-72
2021/06/18 13:15:45;;;;;;;;;;;37.30;44.60;;;;;;5063398;28;19913;-72
2021/06/18 13:18:10;;;;;;;;;;;37.70;41.80;;;;;;5055445;28;20368;-72
2021/06/18 13:20:37;;;;;;;;;;;37.90;42.20;;;;;;5053737;28;20046;-72
2021/06/18 13:23:22;;;;;;;;;;;38.00;42.80;;;;;;5059069;28;20218;-72
2021/06/18 13:25:48;;;;;;;;;;;38.20;41.80;;;;;;5055409;28;19942;-72
2021/06/18 13:28:13;;;;;;;;;;;38.70;45.20;;;;;;5055617;28;19913;-72
2021/06/18 13:30:53;;;;;;;;;;;38.40;45.10;;;;;;5055980;28;19984;-71
2021/06/18 13:33:18;;;;;;;;;;;38.20;47.50;;;;;;5055372;28;20264;-72
2021/06/18 13:35:44;;;;;;;;;;;38.50;49.20;;;;;;5054226;28;19912;-72
2021/06/18 13:38:14;;;;;;;;;;;38.70;46.40;;;;;;5054834;28;19924;-72
2021/06/18 13:40:49;;;;;;;;;;;38.80;45.10;;;;;;5056583;28;20247;-72
2021/06/18 13:43:15;;;;;;;;;;;37.80;45.80;;;;;;5057487;28;20543;-72
2021/06/18 13:45:41;;;;;;;;;;;37.40;47.80;;;;;;5058064;28;19947;-71
2021/06/18 13:48:06;;;;;;;;;;;37.30;47.80;;;;;;5049823;28;19913;-72
2021/06/18 13:50:45;;;;;;;;;;;37.70;47.50;;;;;;5048964;28;19976;-72
2021/06/18 13:53:12;;;;;;;;;;;37.60;49.90;;;;;;5056757;28;19924;-72
2021/06/18 13:55:38;;;;;;;;;;;38.00;46.40;;;;;;5058808;28;20323;-72
2021/06/18 13:58:03;;;;;;;;;;;38.40;45.50;;;;;;5054839;28;19951;-72
2021/06/18 14:00:29;;;;;;;;;;;38.70;46.00;;;;;;5052819;28;20022;-72
2021/06/18 14:02:55;;;;;;;;;;;38.80;46.10;;;;;;5053438;28;20012;-72
2021/06/18 14:05:21;;;;;;;;;;;38.30;44.40;;;;;;5054093;28;19970;-72
2021/06/18 14:07:47;;;;;;;;;;;38.50;45.20;;;;;;5054181;28;20566;-72
2021/06/18 14:10:12;;;;;;;;;;;38.20;47.50;;;;;;5054342;28;19916;-72
2021/06/18 14:12:41;;;;;;;;;;;38.90;46.40;;;;;;5054739;28;19917;-72
2021/06/18 14:15:09;;;;;;;;;;;39.30;44.20;;;;;;5051805;28;20021;-72
2021/06/18 14:17:36;;;;;;;;;;;38.70;46.50;;;;;;5053728;28;19917;-71
2021/06/18 14:20:02;;;;;;;;;;;38.50;46.90;;;;;;5053117;28;19912;-72